createdAt,value
2019-05-07T00:03:25.664Z,9.93
2019-05-07T00:08:28.128Z,9.80
2019-05-07T00:13:30.590Z,9.50
2019-05-07T00:18:33.045Z,10.30
2019-05-07T00:23:35.498Z,9.70
2019-05-07T00:28:37.967Z,10.23
2019-05-07T00:33:40.427Z,9.80
2019-05-07T00:38:42.875Z,9.97
2019-05-07T00:43:45.341Z,9.40
2019-05-07T00:48:47.807Z,9.53
2019-05-07T00:53:52.051Z,9.37
2019-05-07T00:58:52.944Z,9.93
2019-05-07T01:03:55.164Z,9.43
2019-05-07T01:08:57.608Z,9.00
2019-05-07T01:14:00.080Z,8.77
2019-05-07T01:19:02.548Z,9.23
2019-05-07T01:24:05.001Z,9.10
2019-05-07T01:29:07.453Z,9.53
2019-05-07T01:34:12.047Z,9.13
2019-05-07T01:39:13.118Z,8.50
2019-05-07T01:44:14.818Z,9.47
2019-05-07T01:49:17.269Z,9.73
2019-05-07T01:54:23.532Z,10.17
2019-05-07T01:59:22.627Z,8.83
2019-05-07T02:04:33.329Z,9.10
2019-05-07T02:09:38.547Z,9.00
2019-05-07T02:14:42.265Z,9.47
2019-05-07T02:19:43.457Z,8.80
2019-05-07T02:24:45.918Z,10.00
2019-05-07T02:29:48.364Z,9.67
2019-05-07T02:34:54.173Z,10.47
2019-05-07T02:39:56.097Z,10.17
2019-05-07T02:45:16.844Z,9.57
2019-05-07T02:50:28.297Z,10.77
2019-05-07T02:55:33.431Z,10.73
2019-05-07T03:00:33.559Z,10.10
2019-05-07T03:05:35.667Z,9.47
2019-05-07T03:10:38.227Z,8.83
2019-05-07T03:15:43.226Z,9.57
2019-05-07T03:20:53.533Z,9.93
2019-05-07T03:25:57.422Z,9.47
2019-05-07T03:31:18.514Z,10.30
2019-05-07T03:36:25.820Z,9.73
2019-05-07T03:41:23.389Z,10.47
2019-05-07T03:46:25.849Z,8.97
2019-05-07T03:51:28.303Z,10.20
2019-05-07T03:56:33.024Z,9.20
2019-05-07T04:01:33.587Z,9.70
2019-05-07T04:06:35.738Z,10.27
2019-05-07T04:11:38.187Z,8.40
2019-05-07T04:16:43.878Z,9.27
2019-05-07T04:21:43.582Z,9.07
2019-05-07T04:27:03.935Z,9.20
2019-05-07T04:32:06.395Z,8.80
2019-05-07T04:37:08.833Z,8.73
2019-05-07T04:42:13.256Z,8.27
2019-05-07T04:47:32.324Z,8.40
2019-05-07T04:52:25.303Z,8.43
2019-05-07T04:57:27.774Z,8.17
2019-05-07T05:02:45.531Z,8.47
2019-05-07T05:07:47.983Z,8.30
2019-05-07T05:12:53.376Z,8.03
2019-05-07T05:17:54.054Z,8.43
2019-05-07T05:22:55.523Z,8.50
2019-05-07T05:27:57.985Z,8.17
2019-05-07T05:33:02.214Z,9.17
2019-05-07T05:38:03.148Z,8.47
2019-05-07T05:43:12.719Z,8.53
2019-05-07T05:48:13.901Z,9.10
2019-05-07T05:53:34.469Z,8.20
2019-05-07T05:58:49.229Z,8.50
2019-05-07T06:04:12.330Z,7.77
2019-05-07T06:09:32.797Z,7.73
2019-05-07T06:14:33.510Z,7.97
2019-05-07T06:19:38.667Z,7.80
2019-05-07T06:24:44.229Z,7.77
2019-05-07T06:29:46.685Z,8.80
2019-05-07T06:34:49.143Z,8.47
2019-05-07T06:40:09.585Z,8.43
2019-05-07T06:45:18.199Z,9.20
2019-05-07T06:50:22.071Z,8.70
2019-05-07T06:55:23.127Z,8.80
2019-05-07T07:00:25.584Z,8.10
2019-05-07T07:05:33.000Z,9.03
2019-05-07T07:10:52.260Z,9.17
2019-05-07T07:15:54.123Z,8.07
2019-05-07T07:20:56.576Z,8.57
2019-05-07T07:26:05.038Z,8.93
2019-05-07T07:31:13.364Z,8.80
2019-05-07T07:36:15.830Z,8.90
2019-05-07T07:41:18.291Z,8.93
2019-05-07T07:46:22.153Z,8.60
2019-05-07T07:51:37.235Z,8.47
2019-05-07T07:56:52.639Z,7.90
2019-05-07T08:01:49.442Z,7.97
2019-05-07T08:07:04.107Z,8.07
2019-05-07T08:12:06.815Z,7.50
2019-05-07T08:17:09.170Z,7.53
2019-05-07T08:22:12.122Z,7.60
2019-05-07T08:27:15.266Z,7.50
2019-05-07T08:32:22.119Z,9.40
2019-05-07T08:37:24.297Z,6.67
2019-05-07T08:42:24.640Z,6.17
2019-05-07T08:47:36.141Z,5.30
2019-05-07T08:52:38.609Z,5.35
2019-05-07T08:57:42.046Z,5.22
2019-05-07T09:02:43.531Z,8.57
2019-05-07T09:07:45.993Z,6.28
2019-05-07T09:12:48.468Z,5.22
2019-05-07T09:17:52.681Z,5.18
2019-05-07T09:22:53.378Z,4.15
2019-05-07T09:27:55.846Z,4.85
2019-05-07T09:32:58.363Z,4.68
2019-05-07T09:38:03.022Z,4.22
2019-05-07T09:43:03.294Z,4.60
2019-05-07T09:48:05.729Z,3.87
2019-05-07T09:53:08.195Z,4.47
2019-05-07T09:58:12.588Z,5.80
2019-05-07T10:03:13.119Z,3.60
2019-05-07T10:08:15.588Z,3.80
2019-05-07T10:13:18.042Z,5.07
2019-05-07T10:18:22.700Z,4.55
2019-05-07T10:23:23.391Z,4.00
2019-05-07T10:28:25.458Z,3.40
2019-05-07T10:33:27.936Z,4.30
2019-05-07T10:38:30.397Z,4.37
2019-05-07T10:43:32.965Z,9.53
2019-05-07T10:48:38.390Z,5.57
2019-05-07T10:53:42.423Z,4.70
2019-05-07T10:58:43.355Z,5.03
2019-05-07T11:03:45.812Z,6.63
2019-05-07T11:08:48.379Z,5.87
2019-05-07T11:13:55.334Z,5.23
2019-05-07T11:18:53.303Z,4.30
2019-05-07T11:23:55.891Z,4.33
2019-05-07T11:28:58.296Z,4.80
2019-05-07T11:34:02.802Z,4.47
2019-05-07T11:39:03.225Z,4.33
2019-05-07T11:44:05.685Z,4.70
2019-05-07T11:49:17.389Z,5.00
2019-05-07T11:54:19.860Z,4.50
2019-05-07T11:59:29.349Z,4.13
2019-05-07T12:04:32.072Z,4.33
2019-05-07T12:09:34.292Z,3.80
2019-05-07T12:14:36.754Z,3.47
2019-05-07T12:19:39.211Z,3.83
2019-05-07T12:24:41.943Z,3.50
2019-05-07T12:29:44.129Z,3.60
2019-05-07T12:34:46.593Z,3.80
2019-05-07T12:39:49.038Z,3.93
2019-05-07T12:44:51.805Z,3.47
2019-05-07T12:49:53.949Z,3.53
2019-05-07T12:54:56.415Z,5.40
2019-05-07T12:59:59.022Z,5.83
2019-05-07T13:05:02.923Z,4.87
2019-05-07T13:10:03.987Z,4.40
2019-05-07T13:15:06.462Z,3.60
2019-05-07T13:20:08.919Z,3.60
2019-05-07T13:25:11.380Z,3.90
2019-05-07T13:30:13.848Z,4.10
2019-05-07T13:35:16.315Z,3.80
2019-05-07T13:40:21.456Z,3.83
2019-05-07T13:45:44.516Z,3.87
2019-05-07T13:50:44.636Z,5.43
2019-05-07T13:55:47.093Z,4.07
2019-05-07T14:00:52.513Z,3.67
2019-05-07T14:05:54.974Z,3.67
2019-05-07T14:10:57.429Z,4.10
2019-05-07T14:16:06.108Z,4.53
2019-05-07T14:21:08.570Z,3.87
2019-05-07T14:26:11.023Z,4.63
2019-05-07T14:31:13.495Z,4.30
2019-05-07T14:36:15.971Z,4.40
2019-05-07T14:41:18.425Z,4.43
2019-05-07T14:46:20.895Z,4.20
2019-05-07T14:51:23.370Z,3.80
2019-05-07T14:56:25.832Z,5.07
2019-05-07T15:01:28.315Z,4.40
2019-05-07T15:06:32.561Z,4.47
2019-05-07T15:11:33.287Z,4.80
2019-05-07T15:16:35.703Z,4.60
2019-05-07T15:21:38.296Z,4.30
2019-05-07T15:26:41.952Z,4.27
2019-05-07T15:31:55.522Z,4.57
2019-05-07T15:36:57.989Z,4.17
2019-05-07T15:42:02.243Z,4.40
2019-05-07T15:47:02.921Z,4.30
2019-05-07T15:52:05.423Z,4.93
2019-05-07T15:57:07.857Z,4.70
2019-05-07T16:02:12.263Z,4.50
2019-05-07T16:07:13.250Z,4.77
2019-05-07T16:12:15.277Z,4.20
2019-05-07T16:17:24.546Z,4.00
2019-05-07T16:22:29.149Z,4.33
2019-05-07T16:27:31.814Z,4.30
2019-05-07T16:32:34.088Z,4.47
2019-05-07T16:37:36.568Z,4.27
2019-05-07T16:42:39.039Z,4.50
2019-05-07T16:47:41.506Z,4.00
2019-05-07T16:52:43.987Z,4.70
2019-05-07T16:57:55.443Z,4.50
2019-05-07T17:02:57.922Z,4.37
2019-05-07T17:08:02.260Z,4.20
2019-05-07T17:13:02.978Z,4.20
2019-05-07T17:18:05.321Z,4.23
2019-05-07T17:23:07.782Z,4.33
2019-05-07T17:28:12.478Z,4.13
2019-05-07T17:33:13.011Z,4.53
2019-05-07T17:38:15.202Z,3.70
2019-05-07T17:43:17.660Z,3.90
2019-05-07T17:48:20.137Z,3.77
2019-05-07T17:53:22.658Z,4.23
2019-05-07T17:58:25.065Z,5.10
2019-05-07T18:03:33.456Z,6.87
2019-05-07T18:08:35.986Z,6.77
2019-05-07T18:13:38.439Z,4.80
2019-05-07T18:18:43.078Z,7.17
2019-05-07T18:23:43.485Z,7.50
2019-05-07T18:28:45.857Z,7.67
2019-05-07T18:33:48.433Z,5.60
2019-05-07T18:38:52.774Z,4.53
2019-05-07T18:43:54.706Z,4.83
2019-05-07T18:48:55.847Z,4.40
2019-05-07T18:53:58.395Z,4.93
2019-05-07T18:59:02.102Z,5.57
2019-05-07T19:04:03.246Z,6.10
2019-05-07T19:09:05.730Z,5.47
2019-05-07T19:14:08.257Z,5.33
2019-05-07T19:19:12.487Z,5.23
2019-05-07T19:24:13.201Z,4.80
2019-05-07T19:29:15.661Z,5.20
2019-05-07T19:34:18.137Z,5.13
2019-05-07T19:39:20.655Z,4.97
2019-05-07T19:44:23.125Z,5.50
2019-05-07T19:49:25.595Z,6.10
2019-05-07T19:54:28.102Z,6.50
2019-05-07T19:59:32.578Z,5.70
2019-05-07T20:04:33.211Z,6.37
2019-05-07T20:09:35.682Z,7.73
2019-05-07T20:14:38.153Z,8.50
2019-05-07T20:19:41.762Z,8.03
2019-05-07T20:24:43.105Z,6.90
2019-05-07T20:29:45.562Z,6.63
2019-05-07T20:34:48.059Z,6.50
2019-05-07T20:39:52.396Z,6.57
2019-05-07T20:44:53.031Z,6.13
2019-05-07T20:49:55.519Z,6.90
2019-05-07T20:55:04.136Z,6.53
2019-05-07T21:00:06.604Z,6.77
2019-05-07T21:05:09.077Z,7.40
2019-05-07T21:10:12.654Z,6.07
2019-05-07T21:15:14.031Z,5.13
2019-05-07T21:20:16.485Z,5.67
2019-05-07T21:25:18.959Z,5.23
2019-05-07T21:30:22.322Z,5.87
2019-05-07T21:35:23.945Z,5.73
2019-05-07T21:40:26.327Z,5.57
2019-05-07T21:45:28.803Z,5.10
2019-05-07T21:50:31.260Z,5.67
2019-05-07T21:55:36.660Z,5.67
2019-05-07T22:00:39.113Z,5.40
2019-05-07T22:05:44.106Z,5.50
2019-05-07T22:10:44.050Z,5.73
2019-05-07T22:15:46.510Z,5.70
2019-05-07T22:20:48.976Z,5.57
2019-05-07T22:25:51.576Z,5.43
2019-05-07T22:30:54.034Z,5.80
2019-05-07T22:36:01.762Z,5.70
2019-05-07T22:41:02.129Z,6.00
2019-05-07T22:46:03.042Z,6.43
2019-05-07T22:51:05.510Z,5.57
2019-05-07T22:56:07.989Z,6.73
2019-05-07T23:01:13.237Z,6.53
2019-05-07T23:06:15.641Z,6.00
2019-05-07T23:11:18.098Z,6.50
2019-05-07T23:16:22.941Z,6.93
2019-05-07T23:21:24.661Z,7.30
2019-05-07T23:26:25.469Z,6.90
2019-05-07T23:31:27.927Z,7.00
2019-05-07T23:36:30.388Z,6.93
2019-05-07T23:41:33.060Z,7.20
2019-05-07T23:46:35.332Z,7.23
2019-05-07T23:51:37.791Z,6.60
2019-05-07T23:56:42.470Z,7.40
